Terminal Aerodrome Forecast
Issued by NWS

Home | Current Version | Previous Version | Graphics & Text | Print | Product List | Glossary On
Versions: 1 2 3 4 5 6 7 8 9 10 11 12
964
FTUS43 KUNR 021120
TAFGCC
TAF
KGCC 021120Z 0212/0312 27006KT P6SM SCT120
     FM021800 33015G25KT P6SM SCT080 BKN200
     FM030100 28006KT P6SM SCT250=

USA.gov is the U.S. government's official web portal to all federal, state and local government web resources and services.